Terminal Aerodrome Forecast
Issued by NWS Cleveland, OH

Home | Current Version | Previous Version | Graphics & Text | Print | Product List | Glossary On
Versions: 1 2 3 4 5 6 7 8 9 10 11 12 13 14 15 16 17 18 19
000
FTUS41 KCLE 230800 AAA
TAFCAK
TAF AMD
KCAK 230817Z 2308/2406 24006KT P6SM BKN080 OVC250
      TEMPO 2310/2312 27012G20KT 4SM -TSRA OVC040CB
     FM231200 27006KT P6SM BKN040 OVC080
      TEMPO 2312/2316 5SM -SHRA BKN025
     FM231600 34010KT P6SM OVC012
     FM232000 34010KT P6SM BKN025
     FM232200 34010KT P6SM BKN035
     FM240000 34010KT P6SM BKN045=

USA.gov is the U.S. government's official web portal to all federal, state and local government web resources and services.